Time;durP1;ratioP1;P1;durP2;ratioP2;P2;SDS_P1;SDS_P2;PMS_P1;PMS_P2;Temp;Humidity;BMP_temperature;BMP_pressure;BME280_temperature;BME280_humidity;BME280_pressure;Samples;Min_cycle;Max_cycle;Signal;HPM_P1;HPM_P2
2024/01/30 00:00:55;;;;;;;16.30;8.82;;;;;;;;;;2082703;28;20025;-44
2024/01/30 00:01:56;;;;;;;16.35;9.02;;;;;;;;;;2083710;28;20071;-43
2024/01/30 00:02:57;;;;;;;14.63;8.57;;;;;;;;;;2088792;28;20084;-43
2024/01/30 00:03:59;;;;;;;17.88;9.98;;;;;;;;;;2087843;28;20064;-44
2024/01/30 00:05:00;;;;;;;15.93;9.13;;;;;;;;;;2088531;28;20155;-43
2024/01/30 00:06:03;;;;;;;15.40;9.35;;;;;;;;;;2088551;28;20407;-45
2024/01/30 00:07:04;;;;;;;18.83;9.57;;;;;;;;;;2088478;28;20079;-43
2024/01/30 00:08:06;;;;;;;16.15;8.80;;;;;;;;;;2088425;28;20017;-44
2024/01/30 00:09:08;;;;;;;15.50;9.43;;;;;;;;;;2079894;28;20025;-44
2024/01/30 00:10:10;;;;;;;15.00;9.15;;;;;;;;;;2079490;28;20068;-44
2024/01/30 00:11:11;;;;;;;17.27;9.32;;;;;;;;;;2079231;28;20022;-44
2024/01/30 00:12:12;;;;;;;15.18;9.60;;;;;;;;;;2080054;28;20029;-44
2024/01/30 00:13:16;;;;;;;15.30;9.23;;;;;;;;;;2087611;28;20049;-44
2024/01/30 00:14:17;;;;;;;17.00;9.63;;;;;;;;;;2087877;28;20102;-44
2024/01/30 00:15:18;;;;;;;18.45;9.75;;;;;;;;;;2088539;28;20503;-44
2024/01/30 00:16:21;;;;;;;15.75;9.18;;;;;;;;;;2088283;28;20484;-44
2024/01/30 00:17:25;;;;;;;14.70;9.40;;;;;;;;;;2088506;28;20055;-43
2024/01/30 00:18:26;;;;;;;13.48;8.93;;;;;;;;;;2088341;28;20463;-44
2024/01/30 00:19:27;;;;;;;15.43;9.13;;;;;;;;;;2082364;28;20526;-43
2024/01/30 00:20:28;;;;;;;13.85;9.27;;;;;;;;;;2089273;28;20021;-43
2024/01/30 00:21:30;;;;;;;15.60;8.82;;;;;;;;;;2090061;28;20035;-45
2024/01/30 00:22:32;;;;;;;16.40;8.98;;;;;;;;;;2089975;28;20100;-43
2024/01/30 00:23:33;;;;;;;14.52;10.05;;;;;;;;;;2090212;28;20036;-43
2024/01/30 00:24:34;;;;;;;16.58;8.68;;;;;;;;;;2089931;28;20028;-44
2024/01/30 00:25:35;;;;;;;16.10;10.02;;;;;;;;;;2090082;28;20052;-43
2024/01/30 00:26:37;;;;;;;15.15;8.73;;;;;;;;;;2089912;28;20100;-44
2024/01/30 00:27:38;;;;;;;15.50;9.65;;;;;;;;;;2089837;28;20107;-44
2024/01/30 00:28:39;;;;;;;14.85;9.48;;;;;;;;;;2089578;28;20097;-44
2024/01/30 00:29:41;;;;;;;19.20;10.65;;;;;;;;;;2089781;28;20396;-44
2024/01/30 00:30:42;;;;;;;18.80;9.98;;;;;;;;;;2080909;28;20030;-47
2024/01/30 00:31:43;;;;;;;16.10;9.77;;;;;;;;;;2080861;28;20439;-44
2024/01/30 00:32:44;;;;;;;18.33;9.85;;;;;;;;;;2085730;28;20110;-45
2024/01/30 00:33:46;;;;;;;13.88;9.40;;;;;;;;;;2089946;28;20029;-44
2024/01/30 00:34:47;;;;;;;15.85;9.93;;;;;;;;;;2089927;28;20082;-44
2024/01/30 00:35:48;;;;;;;15.07;9.20;;;;;;;;;;2081078;28;20032;-44
2024/01/30 00:36:49;;;;;;;16.77;9.55;;;;;;;;;;2081122;28;20048;-44
2024/01/30 00:37:51;;;;;;;15.35;9.75;;;;;;;;;;2087666;28;20407;-44
2024/01/30 00:38:52;;;;;;;13.73;9.23;;;;;;;;;;2089782;28;20119;-44
2024/01/30 00:39:53;;;;;;;20.42;9.73;;;;;;;;;;2089826;28;20341;-45
2024/01/30 00:40:54;;;;;;;14.43;9.65;;;;;;;;;;2089974;28;20016;-44
2024/01/30 00:41:56;;;;;;;15.27;9.13;;;;;;;;;;2089763;28;20040;-44
2024/01/30 00:42:57;;;;;;;17.77;9.45;;;;;;;;;;2089997;28;20471;-45
2024/01/30 00:43:58;;;;;;;15.18;8.88;;;;;;;;;;2089927;28;20040;-45
2024/01/30 00:44:59;;;;;;;17.67;9.63;;;;;;;;;;2090047;28;20108;-44
2024/01/30 00:46:01;;;;;;;15.27;9.15;;;;;;;;;;2089525;28;20534;-44
2024/01/30 00:47:02;;;;;;;18.58;9.73;;;;;;;;;;2089685;28;20116;-49
2024/01/30 00:48:04;;;;;;;16.27;9.02;;;;;;;;;;2089918;28;20025;-45
2024/01/30 00:49:05;;;;;;;14.52;8.85;;;;;;;;;;2089723;28;20492;-46
2024/01/30 00:50:07;;;;;;;17.25;8.95;;;;;;;;;;2090062;28;20021;-44
2024/01/30 00:51:08;;;;;;;16.75;9.52;;;;;;;;;;2089843;28;20028;-44
2024/01/30 00:52:09;;;;;;;14.85;9.30;;;;;;;;;;2089862;28;20033;-44
2024/01/30 00:53:11;;;;;;;15.32;8.98;;;;;;;;;;2090188;28;20009;-45
2024/01/30 00:54:12;;;;;;;16.85;9.50;;;;;;;;;;2089522;28;20063;-45
2024/01/30 00:55:14;;;;;;;19.33;10.13;;;;;;;;;;2089658;28;20043;-46
2024/01/30 00:56:18;;;;;;;19.92;9.38;;;;;;;;;;2090582;28;20447;-44
2024/01/30 00:57:19;;;;;;;17.08;10.00;;;;;;;;;;2090039;28;20036;-47
2024/01/30 00:58:20;;;;;;;13.18;9.38;;;;;;;;;;2089971;28;20040;-46
2024/01/30 00:59:21;;;;;;;15.60;9.85;;;;;;;;;;2081649;28;20041;-45
2024/01/30 01:00:28;;;;;;;15.95;9.65;;;;;;;;;;2081472;28;20073;-47
2024/01/30 01:01:29;;;;;;;17.27;9.40;;;;;;;;;;2081546;28;20036;-46
2024/01/30 01:02:31;;;;;;;17.88;9.90;;;;;;;;;;2081670;28;20025;-45
2024/01/30 01:03:32;;;;;;;16.80;9.35;;;;;;;;;;2089961;28;20029;-44
2024/01/30 01:04:33;;;;;;;18.40;9.68;;;;;;;;;;2089852;28;20033;-45
2024/01/30 01:05:34;;;;;;;18.38;9.57;;;;;;;;;;2089804;28;20021;-44
2024/01/30 01:06:36;;;;;;;17.17;9.50;;;;;;;;;;2089544;28;20025;-46
2024/01/30 01:07:37;;;;;;;13.80;8.93;;;;;;;;;;2089871;28;20133;-45
2024/01/30 01:08:38;;;;;;;14.07;9.38;;;;;;;;;;2089718;28;20016;-45
2024/01/30 01:09:39;;;;;;;21.42;9.57;;;;;;;;;;2089722;28;20025;-45
2024/01/30 01:10:41;;;;;;;18.95;9.85;;;;;;;;;;2089745;28;20694;-49
2024/01/30 01:11:42;;;;;;;14.57;9.52;;;;;;;;;;2089584;28;20025;-46
2024/01/30 01:12:43;;;;;;;15.85;8.80;;;;;;;;;;2089897;28;20021;-47
2024/01/30 01:13:45;;;;;;;18.25;9.73;;;;;;;;;;2089857;28;20036;-44
2024/01/30 01:14:46;;;;;;;16.60;9.38;;;;;;;;;;2089855;28;20025;-46
2024/01/30 01:15:47;;;;;;;16.80;9.35;;;;;;;;;;2089649;28;20033;-46
2024/01/30 01:16:48;;;;;;;17.10;8.98;;;;;;;;;;2089739;28;20018;-46
2024/01/30 01:17:50;;;;;;;13.60;9.50;;;;;;;;;;2089370;28;20033;-45
2024/01/30 01:18:51;;;;;;;13.55;9.63;;;;;;;;;;2089673;28;20176;-45
2024/01/30 01:19:52;;;;;;;17.10;9.70;;;;;;;;;;2089696;28;20055;-45
2024/01/30 01:20:54;;;;;;;14.48;8.82;;;;;;;;;;2089657;28;20055;-45
2024/01/30 01:21:55;;;;;;;13.80;9.15;;;;;;;;;;2089546;28;20031;-45
2024/01/30 01:22:56;;;;;;;19.58;9.82;;;;;;;;;;2096773;28;20031;-45
2024/01/30 01:23:57;;;;;;;13.23;8.32;;;;;;;;;;2097001;28;20035;-45
2024/01/30 01:24:59;;;;;;;16.65;9.20;;;;;;;;;;2089571;28;20404;-44
2024/01/30 01:26:01;;;;;;;14.70;8.85;;;;;;;;;;2089347;28;20067;-45
2024/01/30 01:27:02;;;;;;;14.27;9.13;;;;;;;;;;2089579;28;20411;-45
2024/01/30 01:28:03;;;;;;;13.68;9.00;;;;;;;;;;2089553;28;20070;-45
2024/01/30 01:29:09;;;;;;;13.60;8.75;;;;;;;;;;2089710;28;20145;-46
2024/01/30 01:30:13;;;;;;;15.52;8.82;;;;;;;;;;2085204;28;20057;-45
2024/01/30 01:31:14;;;;;;;14.40;8.63;;;;;;;;;;2089714;28;20039;-44
2024/01/30 01:32:16;;;;;;;19.45;9.00;;;;;;;;;;2088778;28;20021;-44
2024/01/30 01:33:17;;;;;;;14.95;8.65;;;;;;;;;;2089544;28;20079;-45
2024/01/30 01:34:18;;;;;;;15.85;8.38;;;;;;;;;;2089493;28;20504;-46
2024/01/30 01:35:20;;;;;;;18.55;8.93;;;;;;;;;;2089412;28;20031;-46
2024/01/30 01:36:21;;;;;;;14.55;8.52;;;;;;;;;;2089591;28;20033;-46
2024/01/30 01:37:22;;;;;;;15.15;9.20;;;;;;;;;;2089389;28;20392;-45
2024/01/30 01:38:24;;;;;;;14.02;8.90;;;;;;;;;;2089586;28;20124;-45
2024/01/30 01:39:25;;;;;;;13.43;8.10;;;;;;;;;;2089763;28;20079;-44
2024/01/30 01:40:27;;;;;;;12.70;8.57;;;;;;;;;;2080587;28;20436;-46
2024/01/30 01:41:31;;;;;;;13.18;8.80;;;;;;;;;;2080826;28;20041;-46
2024/01/30 01:42:33;;;;;;;17.77;9.23;;;;;;;;;;2089338;28;20437;-47
2024/01/30 01:43:34;;;;;;;15.88;9.52;;;;;;;;;;2089526;28;20084;-47
2024/01/30 01:44:35;;;;;;;15.77;8.80;;;;;;;;;;2089505;28;20034;-44
2024/01/30 01:45:37;;;;;;;16.20;8.52;;;;;;;;;;2088868;28;20036;-46
2024/01/30 01:46:38;;;;;;;15.23;8.82;;;;;;;;;;2089326;28;20073;-45
2024/01/30 01:47:39;;;;;;;17.80;8.77;;;;;;;;;;2089319;28;20414;-46
2024/01/30 01:48:42;;;;;;;15.73;9.10;;;;;;;;;;2089222;28;20395;-45
2024/01/30 01:49:43;;;;;;;19.95;9.05;;;;;;;;;;2089208;28;20066;-47
2024/01/30 01:50:45;;;;;;;17.02;8.82;;;;;;;;;;2089283;28;20028;-45
2024/01/30 01:51:47;;;;;;;13.07;8.48;;;;;;;;;;2089505;28;20036;-45
2024/01/30 01:52:49;;;;;;;14.25;9.43;;;;;;;;;;2088755;28;20573;-45
2024/01/30 01:53:51;;;;;;;12.93;8.68;;;;;;;;;;2088793;28;20036;-45
2024/01/30 01:54:52;;;;;;;15.55;8.38;;;;;;;;;;2089524;28;20021;-45
2024/01/30 01:55:54;;;;;;;14.30;9.07;;;;;;;;;;2088994;28;20511;-43
2024/01/30 01:56:56;;;;;;;14.23;8.60;;;;;;;;;;2089163;28;20032;-43
2024/01/30 01:57:57;;;;;;;14.85;8.52;;;;;;;;;;2088676;28;20021;-43
2024/01/30 01:59:01;;;;;;;13.52;8.77;;;;;;;;;;2080413;28;20083;-43
2024/01/30 02:00:04;;;;;;;14.88;9.20;;;;;;;;;;2080618;28;20083;-46
2024/01/30 02:01:05;;;;;;;15.02;9.13;;;;;;;;;;2081478;28;20119;-43
2024/01/30 02:02:08;;;;;;;14.63;8.80;;;;;;;;;;2089222;28;20120;-44
2024/01/30 02:03:12;;;;;;;14.93;9.48;;;;;;;;;;2088933;28;20021;-44
2024/01/30 02:04:13;;;;;;;15.80;8.18;;;;;;;;;;2084017;28;20013;-44
2024/01/30 02:05:15;;;;;;;10.05;6.95;;;;;;;;;;2089203;28;20013;-44
2024/01/30 02:06:16;;;;;;;10.63;6.70;;;;;;;;;;2087654;28;20037;-44
2024/01/30 02:07:18;;;;;;;13.88;6.20;;;;;;;;;;2089227;28;20017;-44
2024/01/30 02:08:19;;;;;;;15.13;6.30;;;;;;;;;;2089042;28;20170;-44
2024/01/30 02:09:20;;;;;;;13.38;7.03;;;;;;;;;;2089355;28;20013;-43
2024/01/30 02:10:21;;;;;;;12.65;5.75;;;;;;;;;;2089003;28;20466;-43
2024/01/30 02:11:23;;;;;;;13.00;6.43;;;;;;;;;;2072190;28;20014;-43
2024/01/30 02:12:25;;;;;;;11.95;6.32;;;;;;;;;;2072818;28;20022;-43
2024/01/30 02:13:26;;;;;;;12.82;5.70;;;;;;;;;;2089126;28;20021;-42
2024/01/30 02:14:27;;;;;;;13.45;5.95;;;;;;;;;;2080342;28;20014;-42
2024/01/30 02:15:32;;;;;;;13.68;6.07;;;;;;;;;;2075387;28;20030;-44
2024/01/30 02:16:33;;;;;;;9.45;6.28;;;;;;;;;;2089150;28;20027;-43
2024/01/30 02:17:35;;;;;;;10.45;5.35;;;;;;;;;;2088295;28;20087;-44
2024/01/30 02:18:41;;;;;;;13.50;5.72;;;;;;;;;;2089012;28;20025;-44
2024/01/30 02:19:43;;;;;;;9.75;5.68;;;;;;;;;;2080483;28;20029;-44
2024/01/30 02:20:44;;;;;;;9.55;5.60;;;;;;;;;;2080445;28;20156;-45
2024/01/30 02:21:46;;;;;;;16.23;6.47;;;;;;;;;;2089245;28;20035;-43
2024/01/30 02:22:48;;;;;;;12.48;6.32;;;;;;;;;;2080206;28;20288;-43
2024/01/30 02:23:51;;;;;;;12.15;6.30;;;;;;;;;;2078003;28;20061;-45
2024/01/30 02:24:52;;;;;;;10.23;5.80;;;;;;;;;;2086512;28;20142;-47
2024/01/30 02:25:53;;;;;;;11.80;5.70;;;;;;;;;;2088721;28;20025;-44
2024/01/30 02:26:55;;;;;;;10.23;5.28;;;;;;;;;;2089261;28;20455;-47
2024/01/30 02:27:56;;;;;;;14.73;5.78;;;;;;;;;;2088839;28;20549;-45
2024/01/30 02:28:57;;;;;;;10.88;5.53;;;;;;;;;;2079832;28;20103;-45
2024/01/30 02:29:59;;;;;;;9.95;5.85;;;;;;;;;;2081606;28;20402;-47
2024/01/30 02:31:00;;;;;;;11.90;6.25;;;;;;;;;;2088987;28;20464;-46
2024/01/30 02:32:01;;;;;;;11.55;5.55;;;;;;;;;;2089314;28;20523;-46
2024/01/30 02:33:02;;;;;;;8.75;5.60;;;;;;;;;;2079886;28;20512;-46
2024/01/30 02:34:04;;;;;;;12.65;5.53;;;;;;;;;;2078447;28;20452;-45
2024/01/30 02:35:05;;;;;;;9.52;4.88;;;;;;;;;;2085843;28;20013;-46
2024/01/30 02:36:06;;;;;;;12.63;6.30;;;;;;;;;;2088798;28;20113;-43
2024/01/30 02:37:08;;;;;;;11.77;5.85;;;;;;;;;;2089001;28;20033;-44
2024/01/30 02:38:09;;;;;;;12.75;5.53;;;;;;;;;;2088649;28;20047;-44
2024/01/30 02:39:10;;;;;;;8.00;5.32;;;;;;;;;;2089133;28;20461;-44
2024/01/30 02:40:12;;;;;;;8.82;5.20;;;;;;;;;;2088608;28;20380;-44
2024/01/30 02:41:14;;;;;;;12.63;5.68;;;;;;;;;;2089071;28;20104;-43
2024/01/30 02:42:15;;;;;;;9.05;4.68;;;;;;;;;;2088708;28;20036;-43
2024/01/30 02:43:16;;;;;;;10.82;6.07;;;;;;;;;;2084959;28;20112;-43
2024/01/30 02:44:18;;;;;;;10.32;5.50;;;;;;;;;;2079998;28;20144;-44
2024/01/30 02:45:19;;;;;;;10.90;5.65;;;;;;;;;;2079652;28;20163;-43
2024/01/30 02:46:20;;;;;;;10.43;4.97;;;;;;;;;;2088881;28;20029;-43
2024/01/30 02:47:22;;;;;;;11.10;5.18;;;;;;;;;;2089032;28;20017;-43
2024/01/30 02:48:23;;;;;;;9.90;5.32;;;;;;;;;;2088915;28;20083;-43
2024/01/30 02:49:24;;;;;;;11.50;4.90;;;;;;;;;;2088829;28;20036;-43
2024/01/30 02:50:25;;;;;;;13.02;5.85;;;;;;;;;;2079630;28;20401;-43
2024/01/30 02:51:27;;;;;;;12.52;5.07;;;;;;;;;;2079920;28;20021;-45
2024/01/30 02:52:28;;;;;;;14.30;6.50;;;;;;;;;;2088362;28;20039;-45
2024/01/30 02:53:30;;;;;;;7.40;4.72;;;;;;;;;;2083440;28;20010;-43
2024/01/30 02:54:31;;;;;;;11.10;5.57;;;;;;;;;;2075323;28;20065;-43
2024/01/30 02:55:32;;;;;;;10.38;5.20;;;;;;;;;;2085069;28;20025;-44
2024/01/30 02:56:34;;;;;;;8.88;5.07;;;;;;;;;;2088305;28;20032;-48
2024/01/30 02:57:35;;;;;;;9.45;4.95;;;;;;;;;;2088511;28;20041;-43
2024/01/30 02:58:37;;;;;;;10.02;5.60;;;;;;;;;;2088425;28;20392;-43
2024/01/30 02:59:38;;;;;;;10.68;5.00;;;;;;;;;;2088851;28;20052;-42
2024/01/30 03:00:40;;;;;;;10.05;5.45;;;;;;;;;;2088742;28;20009;-43
2024/01/30 03:01:44;;;;;;;12.52;5.57;;;;;;;;;;2088199;28;20028;-43
2024/01/30 03:02:45;;;;;;;8.52;5.28;;;;;;;;;;2088174;28;20063;-43
2024/01/30 03:03:47;;;;;;;11.45;5.35;;;;;;;;;;2088551;28;20017;-43
2024/01/30 03:04:48;;;;;;;10.50;5.28;;;;;;;;;;2088781;28;20048;-42
2024/01/30 03:05:49;;;;;;;11.70;5.63;;;;;;;;;;2079627;28;20057;-43
2024/01/30 03:06:50;;;;;;;11.98;5.15;;;;;;;;;;2080969;28;20048;-43
2024/01/30 03:07:52;;;;;;;11.05;5.57;;;;;;;;;;2088903;28;20025;-43
2024/01/30 03:08:53;;;;;;;9.20;5.25;;;;;;;;;;2088831;28;20053;-43
2024/01/30 03:09:55;;;;;;;9.95;5.65;;;;;;;;;;2082882;28;20076;-43
2024/01/30 03:10:56;;;;;;;8.95;4.90;;;;;;;;;;2086249;28;20036;-43
2024/01/30 03:11:58;;;;;;;13.25;5.38;;;;;;;;;;2088929;28;20553;-43
2024/01/30 03:12:59;;;;;;;10.45;5.53;;;;;;;;;;2088689;28;20071;-43
2024/01/30 03:14:00;;;;;;;9.70;5.43;;;;;;;;;;2088718;28;20115;-43
2024/01/30 03:15:02;;;;;;;10.40;5.63;;;;;;;;;;2088963;28;20495;-44
2024/01/30 03:16:03;;;;;;;11.38;5.43;;;;;;;;;;2088607;28;20013;-43
2024/01/30 03:17:06;;;;;;;10.30;5.72;;;;;;;;;;2092994;28;20040;-44
2024/01/30 03:18:08;;;;;;;11.13;5.13;;;;;;;;;;2088941;28;20155;-44
2024/01/30 03:19:09;;;;;;;11.32;5.18;;;;;;;;;;2088698;28;20049;-43
2024/01/30 03:20:11;;;;;;;11.13;5.78;;;;;;;;;;2088882;28;20017;-43
2024/01/30 03:21:12;;;;;;;12.80;5.45;;;;;;;;;;2079765;28;20091;-48
2024/01/30 03:22:14;;;;;;;13.63;5.15;;;;;;;;;;2079844;28;20032;-43
2024/01/30 03:23:15;;;;;;;12.55;5.43;;;;;;;;;;2088712;28;20563;-43
2024/01/30 03:24:17;;;;;;;10.35;5.63;;;;;;;;;;2088401;28;20483;-43
2024/01/30 03:25:18;;;;;;;9.93;5.43;;;;;;;;;;2088845;28;20041;-44
2024/01/30 03:26:19;;;;;;;9.98;5.57;;;;;;;;;;2088284;28;20439;-44
2024/01/30 03:27:20;;;;;;;12.55;5.75;;;;;;;;;;2092418;28;20033;-43
2024/01/30 03:28:22;;;;;;;12.82;5.60;;;;;;;;;;2089040;28;20029;-44
2024/01/30 03:29:23;;;;;;;10.02;5.45;;;;;;;;;;2088387;28;20113;-44
2024/01/30 03:30:24;;;;;;;10.57;5.53;;;;;;;;;;2088417;28;20336;-43
2024/01/30 03:31:25;;;;;;;12.57;5.85;;;;;;;;;;2088786;28;20494;-44
2024/01/30 03:32:27;;;;;;;10.50;5.47;;;;;;;;;;2088666;28;20032;-44
2024/01/30 03:33:28;;;;;;;11.43;5.70;;;;;;;;;;2088386;28;20040;-43
2024/01/30 03:34:30;;;;;;;11.82;5.90;;;;;;;;;;2087985;28;20056;-44
2024/01/30 03:35:31;;;;;;;12.48;5.18;;;;;;;;;;2080165;28;20040;-43
2024/01/30 03:36:34;;;;;;;10.52;5.28;;;;;;;;;;2072924;28;20034;-43
2024/01/30 03:37:35;;;;;;;12.18;5.65;;;;;;;;;;2087687;28;20082;-42
2024/01/30 03:38:36;;;;;;;12.10;5.40;;;;;;;;;;2088463;28;20052;-44
2024/01/30 03:39:38;;;;;;;10.80;5.25;;;;;;;;;;2088789;28;20034;-43
2024/01/30 03:40:39;;;;;;;13.65;6.40;;;;;;;;;;2088528;28;20032;-44
2024/01/30 03:41:44;;;;;;;11.00;5.60;;;;;;;;;;2088498;28;20018;-45
2024/01/30 03:42:45;;;;;;;15.23;6.07;;;;;;;;;;2088845;28;20476;-44
2024/01/30 03:43:47;;;;;;;14.32;5.72;;;;;;;;;;2084529;28;20021;-43
2024/01/30 03:44:51;;;;;;;10.93;5.00;;;;;;;;;;2079872;28;20025;-45
2024/01/30 03:45:53;;;;;;;9.55;5.38;;;;;;;;;;2079442;28;20026;-44
2024/01/30 03:46:54;;;;;;;10.23;5.25;;;;;;;;;;2088173;28;20013;-44
2024/01/30 03:47:55;;;;;;;10.00;5.25;;;;;;;;;;2088283;28;20499;-43
2024/01/30 03:48:56;;;;;;;13.50;5.07;;;;;;;;;;2087894;28;20085;-43
2024/01/30 03:49:58;;;;;;;12.07;5.60;;;;;;;;;;2088152;28;20024;-43
2024/01/30 03:50:59;;;;;;;10.23;5.43;;;;;;;;;;2088508;28;20022;-44
2024/01/30 03:52:00;;;;;;;7.05;5.53;;;;;;;;;;2096064;28;20557;-43
2024/01/30 03:53:01;;;;;;;9.63;5.20;;;;;;;;;;2095934;28;20029;-43
2024/01/30 03:54:03;;;;;;;13.65;5.80;;;;;;;;;;2088412;28;20021;-43
2024/01/30 03:55:04;;;;;;;10.52;5.88;;;;;;;;;;2088483;28;20100;-43
2024/01/30 03:56:06;;;;;;;10.05;5.78;;;;;;;;;;2090275;28;20422;-44
2024/01/30 03:57:07;;;;;;;9.20;5.45;;;;;;;;;;2089971;28;20345;-43
2024/01/30 03:58:08;;;;;;;11.38;5.95;;;;;;;;;;2090370;28;20495;-43
2024/01/30 03:59:10;;;;;;;16.98;5.55;;;;;;;;;;2089047;28;20340;-43
2024/01/30 04:00:11;;;;;;;12.93;5.60;;;;;;;;;;2086947;28;20025;-44
2024/01/30 04:01:15;;;;;;;9.88;5.60;;;;;;;;;;2089778;28;20086;-44
2024/01/30 04:02:17;;;;;;;13.88;6.05;;;;;;;;;;2090396;28;20028;-43
2024/01/30 04:03:19;;;;;;;9.90;4.88;;;;;;;;;;2090257;28;20025;-43
2024/01/30 04:04:20;;;;;;;10.55;5.35;;;;;;;;;;2081359;28;20657;-43
2024/01/30 04:05:21;;;;;;;12.82;5.53;;;;;;;;;;2080945;28;20025;-44
2024/01/30 04:06:23;;;;;;;10.32;6.15;;;;;;;;;;2084920;28;20029;-43
2024/01/30 04:07:24;;;;;;;11.60;5.40;;;;;;;;;;2090306;28;20021;-43
2024/01/30 04:08:25;;;;;;;9.95;4.72;;;;;;;;;;2090070;28;20130;-43
2024/01/30 04:09:28;;;;;;;11.80;5.80;;;;;;;;;;2090128;28;20155;-43
2024/01/30 04:10:29;;;;;;;11.30;5.82;;;;;;;;;;2090368;28;20053;-43
2024/01/30 04:11:31;;;;;;;9.30;5.55;;;;;;;;;;2078303;28;20036;-43
2024/01/30 04:12:32;;;;;;;12.50;5.45;;;;;;;;;;2081067;28;20462;-44
2024/01/30 04:13:34;;;;;;;10.98;5.78;;;;;;;;;;2090228;28;20013;-45
2024/01/30 04:14:35;;;;;;;13.35;5.40;;;;;;;;;;2090110;28;20100;-44
2024/01/30 04:15:37;;;;;;;9.40;5.97;;;;;;;;;;2090275;28;20377;-44
2024/01/30 04:16:38;;;;;;;11.80;5.53;;;;;;;;;;2090002;28;20021;-45
2024/01/30 04:17:39;;;;;;;14.50;6.75;;;;;;;;;;2089991;28;20580;-44
2024/01/30 04:18:41;;;;;;;11.30;5.28;;;;;;;;;;2090320;28;20467;-43
2024/01/30 04:19:42;;;;;;;13.63;5.70;;;;;;;;;;2089965;28;20013;-44
2024/01/30 04:20:43;;;;;;;9.00;5.07;;;;;;;;;;2090004;28;20056;-44
2024/01/30 04:21:45;;;;;;;10.80;5.82;;;;;;;;;;2090254;28;20048;-43
2024/01/30 04:22:46;;;;;;;11.88;6.10;;;;;;;;;;2090084;28;20035;-46
2024/01/30 04:23:48;;;;;;;11.55;5.35;;;;;;;;;;2090277;28;20021;-44
2024/01/30 04:24:49;;;;;;;15.32;5.93;;;;;;;;;;2090226;28;20096;-46
2024/01/30 04:25:50;;;;;;;8.88;5.65;;;;;;;;;;2089929;28;20064;-45
2024/01/30 04:26:51;;;;;;;9.43;5.80;;;;;;;;;;2089933;28;20040;-46
2024/01/30 04:27:53;;;;;;;12.30;5.45;;;;;;;;;;2089976;28;20016;-47
2024/01/30 04:28:55;;;;;;;9.65;6.00;;;;;;;;;;2081208;28;20018;-46
2024/01/30 04:29:56;;;;;;;13.52;5.47;;;;;;;;;;2080600;28;20104;-46
2024/01/30 04:30:57;;;;;;;10.10;5.22;;;;;;;;;;2088944;28;20025;-46
2024/01/30 04:31:58;;;;;;;11.55;5.68;;;;;;;;;;2090065;28;20361;-46
2024/01/30 04:33:00;;;;;;;11.13;5.68;;;;;;;;;;2087466;28;20476;-46
2024/01/30 04:34:01;;;;;;;13.45;5.72;;;;;;;;;;2087875;28;20028;-46
2024/01/30 04:35:02;;;;;;;12.05;6.00;;;;;;;;;;2090096;28;20021;-45
2024/01/30 04:36:04;;;;;;;12.40;5.72;;;;;;;;;;2090134;28;20533;-45
2024/01/30 04:37:06;;;;;;;10.63;5.93;;;;;;;;;;2089896;28;20074;-45
2024/01/30 04:38:07;;;;;;;9.73;5.80;;;;;;;;;;2081021;28;20025;-45
2024/01/30 04:39:08;;;;;;;12.50;6.35;;;;;;;;;;2080870;28;20022;-45
2024/01/30 04:40:10;;;;;;;10.95;5.95;;;;;;;;;;2089127;28;20031;-45
2024/01/30 04:41:11;;;;;;;16.38;6.53;;;;;;;;;;2083565;28;20018;-46
2024/01/30 04:42:12;;;;;;;11.25;5.70;;;;;;;;;;2080952;28;20417;-46
2024/01/30 04:43:15;;;;;;;7.65;5.35;;;;;;;;;;2081212;28;20039;-46
2024/01/30 04:44:16;;;;;;;10.20;6.38;;;;;;;;;;2089905;28;20032;-44
2024/01/30 04:45:18;;;;;;;9.68;5.85;;;;;;;;;;2087500;28;20026;-46
2024/01/30 04:46:19;;;;;;;12.65;6.20;;;;;;;;;;2088993;28;20033;-46
2024/01/30 04:47:20;;;;;;;11.77;5.97;;;;;;;;;;2089796;28;20025;-45
2024/01/30 04:48:22;;;;;;;10.52;6.05;;;;;;;;;;2080938;28;20611;-45
2024/01/30 04:49:23;;;;;;;9.02;5.45;;;;;;;;;;2087050;28;20040;-44
2024/01/30 04:50:26;;;;;;;10.75;6.20;;;;;;;;;;2089877;28;20484;-45
2024/01/30 04:51:27;;;;;;;9.68;5.82;;;;;;;;;;2090069;28;20025;-45
2024/01/30 04:52:29;;;;;;;9.20;5.47;;;;;;;;;;2082084;28;20029;-45
2024/01/30 04:53:31;;;;;;;10.02;6.20;;;;;;;;;;2085992;28;20020;-44
2024/01/30 04:54:32;;;;;;;12.48;6.82;;;;;;;;;;2082146;28;20091;-43
2024/01/30 04:55:33;;;;;;;12.13;6.40;;;;;;;;;;2089831;28;20633;-43
2024/01/30 04:56:35;;;;;;;13.20;6.32;;;;;;;;;;2086238;28;20014;-43
2024/01/30 04:57:36;;;;;;;15.68;6.30;;;;;;;;;;2081216;28;20018;-43
2024/01/30 04:58:38;;;;;;;14.65;6.68;;;;;;;;;;2084813;28;20113;-45
2024/01/30 04:59:39;;;;;;;9.85;6.55;;;;;;;;;;2089542;28;20016;-44
2024/01/30 05:00:40;;;;;;;10.38;6.18;;;;;;;;;;2080700;28;20028;-43
2024/01/30 05:01:41;;;;;;;15.73;6.90;;;;;;;;;;2081002;28;20021;-44
2024/01/30 05:02:43;;;;;;;11.13;5.85;;;;;;;;;;2089629;28;20051;-43
2024/01/30 05:03:45;;;;;;;11.88;6.13;;;;;;;;;;2089921;28;20645;-45
2024/01/30 05:04:46;;;;;;;10.88;6.60;;;;;;;;;;2080669;28;20065;-45
2024/01/30 05:05:47;;;;;;;12.73;5.78;;;;;;;;;;2080489;28;20025;-44
2024/01/30 05:06:49;;;;;;;11.48;6.00;;;;;;;;;;2088423;28;20029;-46
2024/01/30 05:07:50;;;;;;;14.18;6.22;;;;;;;;;;2089329;28;20048;-45
2024/01/30 05:08:51;;;;;;;12.50;6.45;;;;;;;;;;2089774;28;20100;-44
2024/01/30 05:09:54;;;;;;;9.70;5.93;;;;;;;;;;2089092;28;20559;-46
2024/01/30 05:10:55;;;;;;;10.43;6.53;;;;;;;;;;2089649;28;20399;-45
2024/01/30 05:11:56;;;;;;;9.68;6.72;;;;;;;;;;2089787;28;20032;-46
2024/01/30 05:12:58;;;;;;;15.70;6.50;;;;;;;;;;2090492;28;20036;-45
2024/01/30 05:13:59;;;;;;;11.95;6.70;;;;;;;;;;2089872;28;20107;-45
2024/01/30 05:15:00;;;;;;;12.45;6.40;;;;;;;;;;2084220;28;20523;-46
2024/01/30 05:16:03;;;;;;;10.55;6.30;;;;;;;;;;2089686;28;20036;-46
2024/01/30 05:17:05;;;;;;;10.82;6.65;;;;;;;;;;2089799;28;20951;-46
2024/01/30 05:18:06;;;;;;;12.43;6.07;;;;;;;;;;2089382;28;20040;-45
2024/01/30 05:19:07;;;;;;;15.02;7.13;;;;;;;;;;2089755;28;20052;-46
2024/01/30 05:20:11;;;;;;;12.05;6.20;;;;;;;;;;2089729;28;20116;-45
2024/01/30 05:21:12;;;;;;;9.52;6.47;;;;;;;;;;2089604;28;20029;-45
2024/01/30 05:22:15;;;;;;;11.68;6.60;;;;;;;;;;2089614;28;20400;-45
2024/01/30 05:23:16;;;;;;;12.38;6.20;;;;;;;;;;2089183;28;20033;-45
2024/01/30 05:24:18;;;;;;;14.00;6.65;;;;;;;;;;2088489;28;20033;-44
2024/01/30 05:25:19;;;;;;;12.63;6.60;;;;;;;;;;2080797;28;20523;-45
2024/01/30 05:26:22;;;;;;;14.27;6.32;;;;;;;;;;2082715;28;20033;-44
2024/01/30 05:27:23;;;;;;;14.65;6.55;;;;;;;;;;2092204;28;20496;-45
2024/01/30 05:28:25;;;;;;;13.98;7.57;;;;;;;;;;2089903;28;20025;-46
2024/01/30 05:29:27;;;;;;;11.77;6.90;;;;;;;;;;2089259;28;20021;-43
2024/01/30 05:30:28;;;;;;;11.82;6.70;;;;;;;;;;2091921;28;20036;-45
2024/01/30 05:31:30;;;;;;;12.32;6.88;;;;;;;;;;2089321;28;20465;-45
2024/01/30 05:32:31;;;;;;;10.85;6.35;;;;;;;;;;2088872;28;20017;-46
2024/01/30 05:33:32;;;;;;;12.15;6.50;;;;;;;;;;2089476;28;20104;-46
2024/01/30 05:34:34;;;;;;;17.77;7.82;;;;;;;;;;2089818;28;20029;-45
2024/01/30 05:35:35;;;;;;;12.32;7.00;;;;;;;;;;2089475;28;20021;-44
2024/01/30 05:36:36;;;;;;;11.32;6.65;;;;;;;;;;2089098;28;20029;-43
2024/01/30 05:37:38;;;;;;;13.93;6.97;;;;;;;;;;2088928;28;20068;-44
2024/01/30 05:38:39;;;;;;;12.98;7.18;;;;;;;;;;2089223;28;20020;-44
2024/01/30 05:39:41;;;;;;;10.82;5.85;;;;;;;;;;2080689;28;20029;-45
2024/01/30 05:40:42;;;;;;;11.15;7.15;;;;;;;;;;2088453;28;20083;-45
2024/01/30 05:41:43;;;;;;;13.27;7.07;;;;;;;;;;2087743;28;20029;-44
2024/01/30 05:42:44;;;;;;;12.93;6.82;;;;;;;;;;2081277;28;20057;-44
2024/01/30 05:43:46;;;;;;;13.73;7.05;;;;;;;;;;2089508;28;20017;-44
2024/01/30 05:44:47;;;;;;;14.98;7.15;;;;;;;;;;2080434;28;20021;-44
2024/01/30 05:45:49;;;;;;;14.35;7.43;;;;;;;;;;2080329;28;20366;-43
2024/01/30 05:46:50;;;;;;;12.90;7.13;;;;;;;;;;2091880;28;20059;-44
2024/01/30 05:47:51;;;;;;;13.80;7.50;;;;;;;;;;2089305;28;20083;-43
2024/01/30 05:48:52;;;;;;;12.32;6.55;;;;;;;;;;2089283;28;20494;-43
2024/01/30 05:49:53;;;;;;;11.23;7.15;;;;;;;;;;2078215;28;20030;-50
2024/01/30 05:50:55;;;;;;;15.18;7.07;;;;;;;;;;2077881;28;20053;-43
2024/01/30 05:51:56;;;;;;;12.27;6.63;;;;;;;;;;2080464;28;20098;-43
2024/01/30 05:52:57;;;;;;;13.73;6.72;;;;;;;;;;2080702;28;20112;-44
2024/01/30 05:53:59;;;;;;;12.10;6.88;;;;;;;;;;2089039;28;20036;-44
2024/01/30 05:55:00;;;;;;;14.02;6.70;;;;;;;;;;2080796;28;20048;-44
2024/01/30 05:56:05;;;;;;;14.32;7.70;;;;;;;;;;2087835;28;20013;-43
2024/01/30 05:57:06;;;;;;;14.60;7.70;;;;;;;;;;2089212;28;20045;-43
2024/01/30 05:58:07;;;;;;;15.30;6.68;;;;;;;;;;2088848;28;20029;-43
2024/01/30 05:59:08;;;;;;;10.35;6.95;;;;;;;;;;2089386;28;20028;-43
2024/01/30 06:00:10;;;;;;;11.00;6.90;;;;;;;;;;2089202;28;20035;-43
2024/01/30 06:01:11;;;;;;;13.18;6.82;;;;;;;;;;2088030;28;20104;-43
2024/01/30 06:02:12;;;;;;;11.88;6.75;;;;;;;;;;2089291;28;20025;-44
2024/01/30 06:03:14;;;;;;;10.88;6.18;;;;;;;;;;2089021;28;20385;-43
2024/01/30 06:04:15;;;;;;;10.57;7.03;;;;;;;;;;2088920;28;20102;-44